Four Forks, Louisiana
Current Conditions -  °F | °C
As of 2:56 AM on Saturday 29 Nov 2014 (Local Time) from KSHV Reporting Station
Overcast Overcast  
Wind Chill: 60°   Ceiling: 1100
Heat Index: 60°   Visibility: 10mi
Dew Point: 56°   Wind: 12mph
Humidity: 86%   Direction: 190°S
Pressure: 30.04"   Gusts: NA
Location:  32.1652°N, 93.9629°W
Report Text: KSHV 290856Z 19010KT 10SM OVC011 16/13 A3004 RMK AO2 SLP171 T01560133 58005
Loading
Personal Weather Stations






























Interactive Weather Map New forecast layout! Learn more

10-Day Weather Forecast

Advertisements
Track Severe Weather on mobile